Terminal Aerodrome Forecast
Issued by NWS

Home | Current Version | Previous Version | Text Only | Print | Product List | Glossary On
Versions: 1 2 3 4 5 6 7 8 9 10 11 12 13
043
FTUS42 TJSJ 022342
TAFISX
TAF
TISX 022342Z 0300/0324 VRB06KT P6SM FEW025 SCT040
     FM031300 11010KT P6SM SCT030
     FM032300 VRB06KT P6SM FEW025 SCT040=

USA.gov is the U.S. government's official web portal to all federal, state and local government web resources and services.